sensor_id;sensor_type;location;lat;lon;timestamp;pressure;altitude;pressure_sealevel;temperature;humidity
77454;BME280;66538;53.150;18.160;2023-02-28T00:01:14;102977.11;;;-3.52;76.13
77454;BME280;66538;53.150;18.160;2023-02-28T00:03:42;102981.77;;;-3.52;76.64
77454;BME280;66538;53.150;18.160;2023-02-28T00:06:08;102979.40;;;-3.54;76.59
77454;BME280;66538;53.150;18.160;2023-02-28T00:08:38;102982.23;;;-3.56;76.34
77454;BME280;66538;53.150;18.160;2023-02-28T00:11:07;102978.95;;;-3.59;76.42
77454;BME280;66538;53.150;18.160;2023-02-28T00:13:36;102974.97;;;-3.64;76.14
77454;BME280;66538;53.150;18.160;2023-02-28T00:16:05;102971.63;;;-3.69;76.62
77454;BME280;66538;53.150;18.160;2023-02-28T00:18:32;102975.12;;;-3.71;76.88
77454;BME280;66538;53.150;18.160;2023-02-28T00:20:59;102977.83;;;-3.71;76.54
77454;BME280;66538;53.150;18.160;2023-02-28T00:23:27;102977.37;;;-3.70;76.82
77454;BME280;66538;53.150;18.160;2023-02-28T00:25:54;102978.97;;;-3.70;76.93
77454;BME280;66538;53.150;18.160;2023-02-28T00:28:22;102979.17;;;-3.73;76.40
77454;BME280;66538;53.150;18.160;2023-02-28T00:30:49;102979.05;;;-3.76;76.67
77454;BME280;66538;53.150;18.160;2023-02-28T00:33:16;102980.89;;;-3.76;77.02
77454;BME280;66538;53.150;18.160;2023-02-28T00:35:43;102980.03;;;-3.79;76.94
77454;BME280;66538;53.150;18.160;2023-02-28T00:38:15;102979.06;;;-3.82;77.00
77454;BME280;66538;53.150;18.160;2023-02-28T00:40:42;102977.98;;;-3.86;76.31
77454;BME280;66538;53.150;18.160;2023-02-28T00:43:11;102976.05;;;-3.91;76.75
77454;BME280;66538;53.150;18.160;2023-02-28T00:45:37;102979.64;;;-3.92;76.74
77454;BME280;66538;53.150;18.160;2023-02-28T00:48:04;102971.46;;;-4.04;77.04
77454;BME280;66538;53.150;18.160;2023-02-28T00:50:31;102981.21;;;-3.96;77.01
77454;BME280;66538;53.150;18.160;2023-02-28T00:52:57;102979.64;;;-3.96;76.92
77454;BME280;66538;53.150;18.160;2023-02-28T00:55:24;102982.17;;;-3.99;77.07
77454;BME280;66538;53.150;18.160;2023-02-28T00:57:51;102973.08;;;-4.05;77.52
77454;BME280;66538;53.150;18.160;2023-02-28T01:00:18;102977.91;;;-4.01;77.67
77454;BME280;66538;53.150;18.160;2023-02-28T01:02:44;102981.33;;;-3.99;77.45
77454;BME280;66538;53.150;18.160;2023-02-28T01:05:11;102982.37;;;-3.97;77.52
77454;BME280;66538;53.150;18.160;2023-02-28T01:07:38;102987.14;;;-3.92;77.53
77454;BME280;66538;53.150;18.160;2023-02-28T01:10:05;102992.73;;;-3.92;77.66
77454;BME280;66538;53.150;18.160;2023-02-28T01:12:32;102994.49;;;-3.96;77.49
77454;BME280;66538;53.150;18.160;2023-02-28T01:14:58;102995.84;;;-4.00;77.65
77454;BME280;66538;53.150;18.160;2023-02-28T01:17:25;102996.92;;;-4.04;77.14
77454;BME280;66538;53.150;18.160;2023-02-28T01:19:54;102996.48;;;-4.05;77.51
77454;BME280;66538;53.150;18.160;2023-02-28T01:22:25;102994.75;;;-4.08;77.42
77454;BME280;66538;53.150;18.160;2023-02-28T01:24:51;102995.50;;;-4.08;77.48
77454;BME280;66538;53.150;18.160;2023-02-28T01:27:18;102993.20;;;-4.13;77.05
77454;BME280;66538;53.150;18.160;2023-02-28T01:29:45;102990.35;;;-4.17;77.31
77454;BME280;66538;53.150;18.160;2023-02-28T01:32:12;102984.88;;;-4.17;77.33
77454;BME280;66538;53.150;18.160;2023-02-28T01:34:38;102984.00;;;-4.20;77.64
77454;BME280;66538;53.150;18.160;2023-02-28T01:37:05;102978.58;;;-4.23;77.72
77454;BME280;66538;53.150;18.160;2023-02-28T01:39:31;102986.98;;;-4.20;77.85
77454;BME280;66538;53.150;18.160;2023-02-28T01:41:58;102980.89;;;-4.23;77.78
77454;BME280;66538;53.150;18.160;2023-02-28T01:45:00;102981.46;;;-4.26;77.52
77454;BME280;66538;53.150;18.160;2023-02-28T01:47:31;102979.34;;;-4.28;77.73
77454;BME280;66538;53.150;18.160;2023-02-28T01:50:02;102977.02;;;-4.34;77.60
77454;BME280;66538;53.150;18.160;2023-02-28T01:52:31;102967.20;;;-4.45;77.79
77454;BME280;66538;53.150;18.160;2023-02-28T01:55:01;102967.05;;;-4.47;77.86
77454;BME280;66538;53.150;18.160;2023-02-28T01:57:40;102963.87;;;-4.49;77.87
77454;BME280;66538;53.150;18.160;2023-02-28T02:00:11;102965.26;;;-4.51;77.67
77454;BME280;66538;53.150;18.160;2023-02-28T02:02:42;102970.10;;;-4.48;77.99
77454;BME280;66538;53.150;18.160;2023-02-28T02:05:14;102964.15;;;-4.51;77.80
77454;BME280;66538;53.150;18.160;2023-02-28T02:07:43;102964.81;;;-4.50;77.84
77454;BME280;66538;53.150;18.160;2023-02-28T02:10:15;102968.23;;;-4.44;78.05
77454;BME280;66538;53.150;18.160;2023-02-28T02:15:26;102967.58;;;-4.38;78.21
77454;BME280;66538;53.150;18.160;2023-02-28T02:17:59;102969.24;;;-4.37;77.91
77454;BME280;66538;53.150;18.160;2023-02-28T02:20:58;102974.34;;;-4.36;78.10
77454;BME280;66538;53.150;18.160;2023-02-28T02:37:42;102977.80;;;-4.47;77.63
77454;BME280;66538;53.150;18.160;2023-02-28T02:40:19;102985.63;;;-4.40;77.60
77454;BME280;66538;53.150;18.160;2023-02-28T02:42:59;102983.99;;;-4.42;77.59
77454;BME280;66538;53.150;18.160;2023-02-28T02:45:38;102984.48;;;-4.42;78.04
77454;BME280;66538;53.150;18.160;2023-02-28T02:48:10;102983.97;;;-4.44;78.33
77454;BME280;66538;53.150;18.160;2023-02-28T02:50:44;102985.02;;;-4.49;77.77
77454;BME280;66538;53.150;18.160;2023-02-28T02:53:14;102982.71;;;-4.48;78.15
77454;BME280;66538;53.150;18.160;2023-02-28T02:55:44;102981.98;;;-4.50;78.30
77454;BME280;66538;53.150;18.160;2023-02-28T02:58:15;102985.05;;;-4.51;78.04
77454;BME280;66538;53.150;18.160;2023-02-28T03:00:47;102979.27;;;-4.59;78.24
77454;BME280;66538;53.150;18.160;2023-02-28T03:03:16;102970.44;;;-4.68;78.28
77454;BME280;66538;53.150;18.160;2023-02-28T03:05:48;102979.96;;;-4.65;78.37
77454;BME280;66538;53.150;18.160;2023-02-28T03:08:16;102986.59;;;-4.62;78.40
77454;BME280;66538;53.150;18.160;2023-02-28T03:10:45;102982.02;;;-4.62;78.30
77454;BME280;66538;53.150;18.160;2023-02-28T03:13:27;102976.50;;;-4.71;78.31
77454;BME280;66538;53.150;18.160;2023-02-28T03:18:54;102984.52;;;-4.63;78.35
77454;BME280;66538;53.150;18.160;2023-02-28T03:24:19;102989.96;;;-4.69;78.16
77454;BME280;66538;53.150;18.160;2023-02-28T03:26:53;102989.11;;;-4.72;78.22
77454;BME280;66538;53.150;18.160;2023-02-28T03:29:33;102992.49;;;-4.77;78.15
77454;BME280;66538;53.150;18.160;2023-02-28T03:32:12;102997.09;;;-4.77;78.03
77454;BME280;66538;53.150;18.160;2023-02-28T03:34:54;102997.00;;;-4.81;78.19
77454;BME280;66538;53.150;18.160;2023-02-28T03:37:25;102995.42;;;-4.85;78.31
77454;BME280;66538;53.150;18.160;2023-02-28T03:39:59;103000.07;;;-4.84;78.37
77454;BME280;66538;53.150;18.160;2023-02-28T03:42:29;102998.83;;;-4.88;79.04
77454;BME280;66538;53.150;18.160;2023-02-28T03:45:03;103000.07;;;-4.88;78.75
77454;BME280;66538;53.150;18.160;2023-02-28T03:47:52;103003.94;;;-4.90;78.42
77454;BME280;66538;53.150;18.160;2023-02-28T03:50:22;102998.24;;;-4.94;78.62
77454;BME280;66538;53.150;18.160;2023-02-28T03:52:56;103005.69;;;-4.93;78.87
77454;BME280;66538;53.150;18.160;2023-02-28T03:55:34;103010.14;;;-4.95;78.48
77454;BME280;66538;53.150;18.160;2023-02-28T03:58:11;103007.84;;;-4.98;78.51
77454;BME280;66538;53.150;18.160;2023-02-28T04:00:46;103002.47;;;-4.99;78.39
77454;BME280;66538;53.150;18.160;2023-02-28T04:03:14;103008.47;;;-4.99;78.79
77454;BME280;66538;53.150;18.160;2023-02-28T04:05:48;103012.54;;;-4.99;78.72
77454;BME280;66538;53.150;18.160;2023-02-28T04:08:16;103013.11;;;-5.00;78.81
77454;BME280;66538;53.150;18.160;2023-02-28T04:10:45;103008.84;;;-4.99;79.10
77454;BME280;66538;53.150;18.160;2023-02-28T04:13:14;103010.16;;;-4.98;79.04
77454;BME280;66538;53.150;18.160;2023-02-28T04:15:41;103008.44;;;-5.01;78.76
77454;BME280;66538;53.150;18.160;2023-02-28T04:18:08;103008.43;;;-5.03;78.59
77454;BME280;66538;53.150;18.160;2023-02-28T04:20:34;103008.77;;;-5.05;78.84
77454;BME280;66538;53.150;18.160;2023-02-28T04:23:01;103010.96;;;-5.06;78.68
77454;BME280;66538;53.150;18.160;2023-02-28T04:25:27;103009.05;;;-5.07;78.63
77454;BME280;66538;53.150;18.160;2023-02-28T04:27:54;103011.23;;;-5.08;78.84
77454;BME280;66538;53.150;18.160;2023-02-28T04:30:21;103012.87;;;-5.06;78.89
77454;BME280;66538;53.150;18.160;2023-02-28T04:32:47;103012.64;;;-5.05;79.01
77454;BME280;66538;53.150;18.160;2023-02-28T04:35:14;103014.33;;;-5.04;78.98
77454;BME280;66538;53.150;18.160;2023-02-28T04:37:40;103017.33;;;-5.04;78.96
77454;BME280;66538;53.150;18.160;2023-02-28T04:40:08;103022.45;;;-5.04;78.80
77454;BME280;66538;53.150;18.160;2023-02-28T04:42:34;103024.14;;;-5.06;78.51
77454;BME280;66538;53.150;18.160;2023-02-28T04:45:02;103025.57;;;-5.08;78.96
77454;BME280;66538;53.150;18.160;2023-02-28T04:47:30;103021.20;;;-5.09;78.72
77454;BME280;66538;53.150;18.160;2023-02-28T04:49:57;103021.59;;;-5.09;78.59
77454;BME280;66538;53.150;18.160;2023-02-28T04:52:23;103016.52;;;-5.12;78.73
77454;BME280;66538;53.150;18.160;2023-02-28T04:54:50;103017.58;;;-5.12;78.84
77454;BME280;66538;53.150;18.160;2023-02-28T04:57:16;103020.79;;;-5.13;78.71
77454;BME280;66538;53.150;18.160;2023-02-28T04:59:43;103032.34;;;-5.14;78.65
77454;BME280;66538;53.150;18.160;2023-02-28T05:02:10;103026.30;;;-5.18;78.61
77454;BME280;66538;53.150;18.160;2023-02-28T05:04:37;103031.64;;;-5.18;78.71
77454;BME280;66538;53.150;18.160;2023-02-28T05:07:03;103029.61;;;-5.20;79.13
77454;BME280;66538;53.150;18.160;2023-02-28T05:09:30;103029.66;;;-5.20;79.20
77454;BME280;66538;53.150;18.160;2023-02-28T05:11:57;103035.20;;;-5.19;79.17
77454;BME280;66538;53.150;18.160;2023-02-28T05:14:24;103032.35;;;-5.21;79.02
77454;BME280;66538;53.150;18.160;2023-02-28T05:16:50;103033.15;;;-5.25;78.96
77454;BME280;66538;53.150;18.160;2023-02-28T05:19:17;103033.16;;;-5.27;78.85
77454;BME280;66538;53.150;18.160;2023-02-28T05:21:51;103033.33;;;-5.25;78.97
77454;BME280;66538;53.150;18.160;2023-02-28T05:24:19;103039.41;;;-5.26;78.89
77454;BME280;66538;53.150;18.160;2023-02-28T05:26:51;103036.41;;;-5.31;79.00
77454;BME280;66538;53.150;18.160;2023-02-28T05:29:19;103034.84;;;-5.33;79.23
77454;BME280;66538;53.150;18.160;2023-02-28T05:31:46;103037.35;;;-5.31;79.29
77454;BME280;66538;53.150;18.160;2023-02-28T05:34:12;103037.71;;;-5.29;79.43
77454;BME280;66538;53.150;18.160;2023-02-28T05:36:39;103039.48;;;-5.29;79.15
77454;BME280;66538;53.150;18.160;2023-02-28T05:39:06;103033.44;;;-5.31;78.95
77454;BME280;66538;53.150;18.160;2023-02-28T05:41:43;103034.45;;;-5.30;79.03
77454;BME280;66538;53.150;18.160;2023-02-28T05:44:10;103039.77;;;-5.28;79.41
77454;BME280;66538;53.150;18.160;2023-02-28T05:46:37;103042.44;;;-5.26;79.39
77454;BME280;66538;53.150;18.160;2023-02-28T05:49:04;103042.10;;;-5.26;79.39
77454;BME280;66538;53.150;18.160;2023-02-28T05:51:31;103045.53;;;-5.25;79.84
77454;BME280;66538;53.150;18.160;2023-02-28T05:53:59;103041.24;;;-5.24;79.24
77454;BME280;66538;53.150;18.160;2023-02-28T05:56:27;103041.78;;;-5.25;79.31
77454;BME280;66538;53.150;18.160;2023-02-28T05:58:54;103046.28;;;-5.23;79.09
77454;BME280;66538;53.150;18.160;2023-02-28T06:03:59;103043.95;;;-5.25;78.93
77454;BME280;66538;53.150;18.160;2023-02-28T06:06:26;103050.06;;;-5.17;78.90
77454;BME280;66538;53.150;18.160;2023-02-28T06:08:53;103046.96;;;-5.08;78.97
77454;BME280;66538;53.150;18.160;2023-02-28T06:11:20;103047.89;;;-5.02;78.76
77454;BME280;66538;53.150;18.160;2023-02-28T06:13:47;103046.00;;;-4.96;78.88
77454;BME280;66538;53.150;18.160;2023-02-28T06:16:14;103050.17;;;-4.90;78.59
77454;BME280;66538;53.150;18.160;2023-02-28T06:18:40;103047.98;;;-4.89;78.67
77454;BME280;66538;53.150;18.160;2023-02-28T06:21:07;103048.94;;;-4.83;78.41
77454;BME280;66538;53.150;18.160;2023-02-28T06:23:35;103055.41;;;-4.78;78.49
77454;BME280;66538;53.150;18.160;2023-02-28T06:26:02;103052.13;;;-4.81;78.69
77454;BME280;66538;53.150;18.160;2023-02-28T06:28:28;103055.09;;;-4.73;78.72
77454;BME280;66538;53.150;18.160;2023-02-28T06:30:55;103055.52;;;-4.62;78.69
77454;BME280;66538;53.150;18.160;2023-02-28T06:33:22;103057.48;;;-4.53;78.66
77454;BME280;66538;53.150;18.160;2023-02-28T06:35:52;103053.61;;;-4.51;78.63
77454;BME280;66538;53.150;18.160;2023-02-28T06:38:18;103061.81;;;-4.36;78.76
77454;BME280;66538;53.150;18.160;2023-02-28T06:40:55;103063.20;;;-4.26;78.74
77454;BME280;66538;53.150;18.160;2023-02-28T06:43:23;103069.06;;;-4.16;78.53
77454;BME280;66538;53.150;18.160;2023-02-28T06:45:50;103066.67;;;-4.08;78.67
77454;BME280;66538;53.150;18.160;2023-02-28T06:48:17;103069.64;;;-3.94;78.93
77454;BME280;66538;53.150;18.160;2023-02-28T06:50:44;103067.77;;;-3.83;78.42
77454;BME280;66538;53.150;18.160;2023-02-28T06:53:10;103075.54;;;-3.74;78.20
77454;BME280;66538;53.150;18.160;2023-02-28T06:55:38;103081.94;;;-3.63;78.45
77454;BME280;66538;53.150;18.160;2023-02-28T06:58:05;103076.63;;;-3.55;78.31
77454;BME280;66538;53.150;18.160;2023-02-28T07:00:42;103081.88;;;-3.43;78.42
77454;BME280;66538;53.150;18.160;2023-02-28T07:03:10;103084.72;;;-3.32;78.26
77454;BME280;66538;53.150;18.160;2023-02-28T07:05:39;103088.34;;;-3.22;77.83
77454;BME280;66538;53.150;18.160;2023-02-28T07:08:06;103088.48;;;-3.13;78.26
77454;BME280;66538;53.150;18.160;2023-02-28T07:10:33;103088.12;;;-3.02;78.21
77454;BME280;66538;53.150;18.160;2023-02-28T07:13:00;103086.17;;;-2.91;78.50
77454;BME280;66538;53.150;18.160;2023-02-28T07:15:26;103086.91;;;-2.81;78.54
77454;BME280;66538;53.150;18.160;2023-02-28T07:17:53;103087.29;;;-2.70;78.41
77454;BME280;66538;53.150;18.160;2023-02-28T07:20:20;103084.66;;;-2.60;78.56
77454;BME280;66538;53.150;18.160;2023-02-28T07:22:46;103081.55;;;-2.50;78.31
77454;BME280;66538;53.150;18.160;2023-02-28T07:25:14;103086.69;;;-2.40;78.26
77454;BME280;66538;53.150;18.160;2023-02-28T07:27:40;103083.33;;;-2.31;78.44
77454;BME280;66538;53.150;18.160;2023-02-28T07:30:08;103081.88;;;-2.23;78.86
77454;BME280;66538;53.150;18.160;2023-02-28T07:32:34;103078.95;;;-2.13;78.56
77454;BME280;66538;53.150;18.160;2023-02-28T07:35:04;103079.30;;;-2.03;78.53
77454;BME280;66538;53.150;18.160;2023-02-28T07:37:30;103080.77;;;-1.93;78.63
77454;BME280;66538;53.150;18.160;2023-02-28T07:40:08;103080.69;;;-1.84;78.01
77454;BME280;66538;53.150;18.160;2023-02-28T07:42:36;103075.98;;;-1.83;78.16
77454;BME280;66538;53.150;18.160;2023-02-28T07:45:05;103079.89;;;-1.63;78.08
77454;BME280;66538;53.150;18.160;2023-02-28T07:47:32;103084.30;;;-1.49;77.79
77454;BME280;66538;53.150;18.160;2023-02-28T07:49:59;103081.38;;;-1.44;77.92
77454;BME280;66538;53.150;18.160;2023-02-28T07:52:26;103082.01;;;-1.31;77.86
77454;BME280;66538;53.150;18.160;2023-02-28T07:54:53;103077.54;;;-1.27;77.92
77454;BME280;66538;53.150;18.160;2023-02-28T07:57:20;103075.84;;;-1.14;77.70
77454;BME280;66538;53.150;18.160;2023-02-28T07:59:46;103074.70;;;-1.07;77.60
77454;BME280;66538;53.150;18.160;2023-02-28T08:02:14;103073.27;;;-1.01;77.45
77454;BME280;66538;53.150;18.160;2023-02-28T08:04:41;103078.30;;;-0.88;77.40
77454;BME280;66538;53.150;18.160;2023-02-28T08:07:08;103081.19;;;-0.79;77.52
77454;BME280;66538;53.150;18.160;2023-02-28T08:09:35;103081.05;;;-0.71;77.66
77454;BME280;66538;53.150;18.160;2023-02-28T08:12:01;103078.23;;;-0.64;77.16
77454;BME280;66538;53.150;18.160;2023-02-28T08:14:28;103081.07;;;-0.56;77.24
77454;BME280;66538;53.150;18.160;2023-02-28T08:16:55;103078.66;;;-0.51;77.13
77454;BME280;66538;53.150;18.160;2023-02-28T08:19:21;103081.34;;;-0.40;76.97
77454;BME280;66538;53.150;18.160;2023-02-28T08:21:48;103081.50;;;-0.28;76.81
77454;BME280;66538;53.150;18.160;2023-02-28T08:24:14;103078.20;;;-0.20;76.68
77454;BME280;66538;53.150;18.160;2023-02-28T08:26:41;103072.45;;;-0.11;76.78
77454;BME280;66538;53.150;18.160;2023-02-28T08:29:08;103068.95;;;-0.03;76.60
77454;BME280;66538;53.150;18.160;2023-02-28T08:31:34;103071.07;;;0.09;76.56
77454;BME280;66538;53.150;18.160;2023-02-28T08:34:06;103069.64;;;0.19;76.32
77454;BME280;66538;53.150;18.160;2023-02-28T08:36:33;103070.41;;;0.29;76.21
77454;BME280;66538;53.150;18.160;2023-02-28T08:39:00;103065.11;;;0.32;75.59
77454;BME280;66538;53.150;18.160;2023-02-28T08:41:27;103061.11;;;0.41;75.53
77454;BME280;66538;53.150;18.160;2023-02-28T08:43:54;103057.52;;;0.48;75.49
77454;BME280;66538;53.150;18.160;2023-02-28T08:46:21;103053.72;;;0.56;75.40
77454;BME280;66538;53.150;18.160;2023-02-28T08:48:51;103048.50;;;0.62;75.11
77454;BME280;66538;53.150;18.160;2023-02-28T08:51:20;103043.05;;;0.72;75.04
77454;BME280;66538;53.150;18.160;2023-02-28T08:53:54;103049.46;;;0.83;74.92
77454;BME280;66538;53.150;18.160;2023-02-28T08:56:21;103042.36;;;0.90;74.58
77454;BME280;66538;53.150;18.160;2023-02-28T08:58:49;103044.02;;;0.98;74.21
77454;BME280;66538;53.150;18.160;2023-02-28T09:01:25;103048.89;;;1.10;74.08
77454;BME280;66538;53.150;18.160;2023-02-28T09:03:54;103050.21;;;1.22;74.06
77454;BME280;66538;53.150;18.160;2023-02-28T09:06:24;103052.71;;;1.29;74.10
77454;BME280;66538;53.150;18.160;2023-02-28T09:08:52;103057.58;;;1.35;73.88
77454;BME280;66538;53.150;18.160;2023-02-28T09:11:19;103059.52;;;1.39;73.86
77454;BME280;66538;53.150;18.160;2023-02-28T09:13:46;103058.73;;;1.49;73.48
77454;BME280;66538;53.150;18.160;2023-02-28T09:16:14;103058.59;;;1.55;73.44
77454;BME280;66538;53.150;18.160;2023-02-28T09:18:43;103051.71;;;1.58;73.64
77454;BME280;66538;53.150;18.160;2023-02-28T09:21:12;103047.98;;;1.68;73.36
77454;BME280;66538;53.150;18.160;2023-02-28T09:23:45;103048.55;;;1.75;73.19
77454;BME280;66538;53.150;18.160;2023-02-28T09:26:19;103046.95;;;1.84;73.14
77454;BME280;66538;53.150;18.160;2023-02-28T09:28:46;103048.79;;;1.95;72.93
77454;BME280;66538;53.150;18.160;2023-02-28T09:31:27;103047.41;;;2.00;72.64
77454;BME280;66538;53.150;18.160;2023-02-28T09:33:58;103052.45;;;2.11;72.43
77454;BME280;66538;53.150;18.160;2023-02-28T09:36:26;103059.32;;;2.21;72.10
77454;BME280;66538;53.150;18.160;2023-02-28T09:38:54;103061.98;;;2.30;71.96
77454;BME280;66538;53.150;18.160;2023-02-28T09:41:26;103056.46;;;2.35;71.39
77454;BME280;66538;53.150;18.160;2023-02-28T09:44:00;103055.23;;;2.41;70.94
77454;BME280;66538;53.150;18.160;2023-02-28T09:46:44;103060.84;;;2.47;70.70
77454;BME280;66538;53.150;18.160;2023-02-28T09:49:18;103058.23;;;2.57;70.53
77454;BME280;66538;53.150;18.160;2023-02-28T09:51:55;103060.18;;;2.64;70.14
77454;BME280;66538;53.150;18.160;2023-02-28T09:54:28;103057.19;;;2.70;69.73
77454;BME280;66538;53.150;18.160;2023-02-28T09:57:05;103053.61;;;2.77;69.65
77454;BME280;66538;53.150;18.160;2023-02-28T09:59:54;103051.96;;;2.84;69.08
77454;BME280;66538;53.150;18.160;2023-02-28T10:05:04;103046.10;;;2.95;68.05
77454;BME280;66538;53.150;18.160;2023-02-28T10:08:13;103048.77;;;3.01;67.71
77454;BME280;66538;53.150;18.160;2023-02-28T10:10:40;103049.41;;;3.12;67.05
77454;BME280;66538;53.150;18.160;2023-02-28T10:15:51;103039.36;;;3.18;66.44
77454;BME280;66538;53.150;18.160;2023-02-28T10:18:24;103039.38;;;3.24;65.09
77454;BME280;66538;53.150;18.160;2023-02-28T10:20:53;103048.06;;;3.36;64.70
77454;BME280;66538;53.150;18.160;2023-02-28T10:23:27;103047.13;;;3.41;64.46
77454;BME280;66538;53.150;18.160;2023-02-28T10:26:16;103042.25;;;3.50;64.73
77454;BME280;66538;53.150;18.160;2023-02-28T10:28:43;103036.91;;;3.59;64.31
77454;BME280;66538;53.150;18.160;2023-02-28T10:31:17;103030.48;;;3.62;63.73
77454;BME280;66538;53.150;18.160;2023-02-28T10:33:45;103028.75;;;3.62;64.11
77454;BME280;66538;53.150;18.160;2023-02-28T10:36:15;103025.40;;;3.66;63.65
77454;BME280;66538;53.150;18.160;2023-02-28T10:38:44;103021.21;;;3.70;63.28
77454;BME280;66538;53.150;18.160;2023-02-28T10:41:14;103018.33;;;3.75;63.27
77454;BME280;66538;53.150;18.160;2023-02-28T10:43:42;103022.52;;;3.82;63.29
77454;BME280;66538;53.150;18.160;2023-02-28T10:46:14;103020.84;;;3.83;63.10
77454;BME280;66538;53.150;18.160;2023-02-28T10:49:03;103015.36;;;3.81;62.91
77454;BME280;66538;53.150;18.160;2023-02-28T10:51:38;103018.17;;;3.91;62.83
77454;BME280;66538;53.150;18.160;2023-02-28T10:54:16;103013.45;;;3.82;62.31
77454;BME280;66538;53.150;18.160;2023-02-28T10:57:11;103017.23;;;3.89;62.42
77454;BME280;66538;53.150;18.160;2023-02-28T10:59:41;103013.13;;;3.96;62.47
77454;BME280;66538;53.150;18.160;2023-02-28T11:04:57;103011.04;;;4.08;62.57
77454;BME280;66538;53.150;18.160;2023-02-28T11:07:25;103007.56;;;4.15;62.58
77454;BME280;66538;53.150;18.160;2023-02-28T11:09:56;103003.55;;;4.22;61.61
77454;BME280;66538;53.150;18.160;2023-02-28T11:12:30;103002.45;;;4.30;62.00
77454;BME280;66538;53.150;18.160;2023-02-28T11:18:02;102999.04;;;4.48;61.78
77454;BME280;66538;53.150;18.160;2023-02-28T11:20:32;102992.69;;;4.55;62.49
77454;BME280;66538;53.150;18.160;2023-02-28T11:23:01;102995.68;;;4.63;61.53
77454;BME280;66538;53.150;18.160;2023-02-28T11:25:35;102993.55;;;4.65;60.99
77454;BME280;66538;53.150;18.160;2023-02-28T11:28:05;102992.27;;;4.68;60.67
77454;BME280;66538;53.150;18.160;2023-02-28T11:30:36;102988.05;;;4.72;60.55
77454;BME280;66538;53.150;18.160;2023-02-28T11:33:27;102987.81;;;4.79;60.97
77454;BME280;66538;53.150;18.160;2023-02-28T11:36:19;102981.13;;;4.90;60.57
77454;BME280;66538;53.150;18.160;2023-02-28T11:38:48;102983.05;;;5.02;60.44
77454;BME280;66538;53.150;18.160;2023-02-28T11:41:46;102984.56;;;5.11;59.77
77454;BME280;66538;53.150;18.160;2023-02-28T11:44:42;102975.95;;;5.17;60.50
77454;BME280;66538;53.150;18.160;2023-02-28T11:58:33;102967.16;;;5.41;59.42
77454;BME280;66538;53.150;18.160;2023-02-28T12:06:48;102951.20;;;5.69;58.89
77454;BME280;66538;53.150;18.160;2023-02-28T12:09:35;102951.96;;;5.82;57.97
77454;BME280;66538;53.150;18.160;2023-02-28T12:12:23;102947.59;;;5.94;58.09
77454;BME280;66538;53.150;18.160;2023-02-28T12:15:28;102947.63;;;6.02;57.43
77454;BME280;66538;53.150;18.160;2023-02-28T12:21:18;102937.80;;;6.59;56.63
77454;BME280;66538;53.150;18.160;2023-02-28T12:23:23;102939.08;;;7.33;55.66
77454;BME280;66538;53.150;18.160;2023-02-28T12:28:47;102934.46;;;8.58;53.07
77454;BME280;66538;53.150;18.160;2023-02-28T12:31:24;102931.45;;;9.23;52.42
77454;BME280;66538;53.150;18.160;2023-02-28T12:33:59;102934.98;;;9.85;50.83
77454;BME280;66538;53.150;18.160;2023-02-28T12:36:27;102930.23;;;10.38;49.89
77454;BME280;66538;53.150;18.160;2023-02-28T12:44:28;102910.91;;;12.01;46.49
77454;BME280;66538;53.150;18.160;2023-02-28T12:47:00;102910.90;;;12.42;44.71
77454;BME280;66538;53.150;18.160;2023-02-28T12:49:33;102903.98;;;12.74;44.60
77454;BME280;66538;53.150;18.160;2023-02-28T12:52:01;102898.42;;;13.05;43.78
77454;BME280;66538;53.150;18.160;2023-02-28T12:54:40;102895.50;;;13.24;43.58
77454;BME280;66538;53.150;18.160;2023-02-28T12:57:28;102890.73;;;13.66;42.32
77454;BME280;66538;53.150;18.160;2023-02-28T13:00:12;102881.11;;;14.00;41.86
77454;BME280;66538;53.150;18.160;2023-02-28T13:10:46;102861.16;;;15.61;39.75
77454;BME280;66538;53.150;18.160;2023-02-28T13:13:16;102860.21;;;16.05;37.35
77454;BME280;66538;53.150;18.160;2023-02-28T13:16:09;102859.63;;;16.38;37.04
77454;BME280;66538;53.150;18.160;2023-02-28T13:18:45;102859.30;;;16.63;36.64
77454;BME280;66538;53.150;18.160;2023-02-28T13:39:49;102841.30;;;18.96;30.96
77454;BME280;66538;53.150;18.160;2023-02-28T13:42:32;102834.30;;;19.23;29.09
77454;BME280;66538;53.150;18.160;2023-02-28T13:47:43;102831.54;;;19.81;29.06
77454;BME280;66538;53.150;18.160;2023-02-28T13:55:46;102824.90;;;20.63;26.22
77454;BME280;66538;53.150;18.160;2023-02-28T13:58:35;102822.36;;;20.82;25.70
77454;BME280;66538;53.150;18.160;2023-02-28T14:07:08;102809.05;;;21.61;24.16
77454;BME280;66538;53.150;18.160;2023-02-28T14:09:41;102810.10;;;21.50;23.57
77454;BME280;66538;53.150;18.160;2023-02-28T14:13:11;102806.49;;;21.64;24.05
77454;BME280;66538;53.150;18.160;2023-02-28T14:15:40;102803.21;;;21.96;23.19
77454;BME280;66538;53.150;18.160;2023-02-28T14:18:17;102800.67;;;22.04;22.56
77454;BME280;66538;53.150;18.160;2023-02-28T14:20:46;102801.58;;;22.17;22.61
77454;BME280;66538;53.150;18.160;2023-02-28T14:23:20;102803.45;;;22.18;22.54
77454;BME280;66538;53.150;18.160;2023-02-28T14:26:16;102801.92;;;22.07;21.33
77454;BME280;66538;53.150;18.160;2023-02-28T14:29:05;102793.86;;;22.28;22.02
77454;BME280;66538;53.150;18.160;2023-02-28T14:31:43;102784.79;;;22.39;21.19
77454;BME280;66538;53.150;18.160;2023-02-28T14:36:45;102783.84;;;22.57;21.33
77454;BME280;66538;53.150;18.160;2023-02-28T14:39:16;102780.06;;;22.69;20.21
77454;BME280;66538;53.150;18.160;2023-02-28T14:41:45;102775.20;;;22.49;20.96
77454;BME280;66538;53.150;18.160;2023-02-28T14:44:21;102777.72;;;22.21;21.08
77454;BME280;66538;53.150;18.160;2023-02-28T14:47:00;102779.89;;;21.34;21.74
77454;BME280;66538;53.150;18.160;2023-02-28T14:49:36;102783.71;;;19.86;22.44
77454;BME280;66538;53.150;18.160;2023-02-28T14:52:22;102791.42;;;18.69;23.41